Time;durP1;ratioP1;P1;durP2;ratioP2;P2;SDS_P1;SDS_P2;PMS_P1;PMS_P2;Temp;Humidity;BMP_temperature;BMP_pressure;BME280_temperature;BME280_humidity;BME280_pressure;Samples;Min_cycle;Max_cycle;Signal;HPM_P1;HPM_P2
2023/07/22 00:00:26;;;;;;;8.87;2.50;;;;;;;;;;5055976;28;20040;-65
2023/07/22 00:02:53;;;;;;;6.43;2.25;;;;;;;;;;5058961;28;20553;-64
2023/07/22 00:05:23;;;;;;;6.30;2.05;;;;;;;;;;5066173;28;20048;-64
2023/07/22 00:07:51;;;;;;;7.90;2.15;;;;;;;;;;5066770;28;20132;-64
2023/07/22 00:10:19;;;;;;;5.97;1.75;;;;;;;;;;5060103;28;20040;-64
2023/07/22 00:12:47;;;;;;;6.80;1.90;;;;;;;;;;5067384;28;20048;-65
2023/07/22 00:15:15;;;;;;;7.85;2.30;;;;;;;;;;5064744;28;20048;-65
2023/07/22 00:17:44;;;;;;;7.13;1.92;;;;;;;;;;5065627;28;20625;-64
2023/07/22 00:20:14;;;;;;;11.75;2.10;;;;;;;;;;5024437;28;20067;-65
2023/07/22 00:22:42;;;;;;;6.57;2.00;;;;;;;;;;5063809;28;20048;-64
2023/07/22 00:25:11;;;;;;;7.03;2.07;;;;;;;;;;5058049;28;20109;-64
2023/07/22 00:27:38;;;;;;;9.63;2.40;;;;;;;;;;5062310;28;20127;-64
2023/07/22 00:30:07;;;;;;;6.10;2.20;;;;;;;;;;5062137;28;20072;-64
2023/07/22 00:32:36;;;;;;;8.82;2.33;;;;;;;;;;5056249;28;20134;-64
2023/07/22 00:35:06;;;;;;;6.88;2.03;;;;;;;;;;5065487;28;20135;-64
2023/07/22 00:37:35;;;;;;;8.03;1.97;;;;;;;;;;5061144;28;20052;-64
2023/07/22 00:40:03;;;;;;;8.40;2.10;;;;;;;;;;5065457;28;20131;-64
2023/07/22 00:42:31;;;;;;;12.60;2.05;;;;;;;;;;5063220;28;20151;-64
2023/07/22 00:44:59;;;;;;;6.95;1.80;;;;;;;;;;5069073;28;20052;-63
2023/07/22 00:47:26;;;;;;;6.30;1.90;;;;;;;;;;5038527;28;20040;-64
2023/07/22 00:49:55;;;;;;;10.03;2.20;;;;;;;;;;5071129;28;20140;-64
2023/07/22 00:52:25;;;;;;;8.88;1.98;;;;;;;;;;5047857;28;20561;-63
2023/07/22 00:54:53;;;;;;;7.93;2.03;;;;;;;;;;5067606;28;20040;-64
2023/07/22 00:57:21;;;;;;;7.35;2.15;;;;;;;;;;5051991;28;20050;-64
2023/07/22 00:59:49;;;;;;;7.63;2.33;;;;;;;;;;5062112;28;20048;-64
2023/07/22 01:02:18;;;;;;;9.17;2.77;;;;;;;;;;5035156;28;20459;-64
2023/07/22 01:04:47;;;;;;;6.65;1.98;;;;;;;;;;5052621;28;20056;-66
2023/07/22 01:07:15;;;;;;;7.55;1.85;;;;;;;;;;5058154;28;20487;-66
2023/07/22 01:09:45;;;;;;;8.48;1.80;;;;;;;;;;5059113;28;20591;-66
2023/07/22 01:12:13;;;;;;;8.40;1.95;;;;;;;;;;5060621;28;20128;-66
2023/07/22 01:14:42;;;;;;;6.17;1.73;;;;;;;;;;5070498;28;20044;-66
2023/07/22 01:17:11;;;;;;;6.15;2.17;;;;;;;;;;5055585;28;20147;-66
2023/07/22 01:19:39;;;;;;;8.35;2.20;;;;;;;;;;5065600;28;20131;-66
2023/07/22 01:22:07;;;;;;;9.80;1.98;;;;;;;;;;5064509;28;20328;-66
2023/07/22 01:24:37;;;;;;;7.07;2.30;;;;;;;;;;5070589;28;20084;-66
2023/07/22 01:27:08;;;;;;;7.33;1.97;;;;;;;;;;5055142;28;20117;-65
2023/07/22 01:29:36;;;;;;;5.43;1.67;;;;;;;;;;5060465;28;20455;-65
2023/07/22 01:32:05;;;;;;;6.88;2.35;;;;;;;;;;5059916;28;20824;-66
2023/07/22 01:34:33;;;;;;;7.05;2.08;;;;;;;;;;5071632;28;20421;-66
2023/07/22 01:37:04;;;;;;;8.88;2.20;;;;;;;;;;5065514;28;20388;-66
2023/07/22 01:39:32;;;;;;;7.00;1.90;;;;;;;;;;5060487;28;20489;-65
2023/07/22 01:42:05;;;;;;;6.32;1.90;;;;;;;;;;5054628;28;20148;-66
2023/07/22 01:44:33;;;;;;;9.13;2.30;;;;;;;;;;5063939;28;20044;-66
2023/07/22 01:47:02;;;;;;;10.18;2.13;;;;;;;;;;5036337;28;20059;-66
2023/07/22 01:49:30;;;;;;;8.38;2.00;;;;;;;;;;5069279;28;20056;-66
2023/07/22 01:51:57;;;;;;;8.60;1.87;;;;;;;;;;5060586;28;20048;-65
2023/07/22 01:54:26;;;;;;;7.70;2.10;;;;;;;;;;5057703;28;20075;-66
2023/07/22 01:56:57;;;;;;;8.07;2.05;;;;;;;;;;5061626;28;20071;-66
2023/07/22 01:59:26;;;;;;;5.38;1.77;;;;;;;;;;5061617;28;20083;-65
2023/07/22 02:01:53;;;;;;;6.70;2.00;;;;;;;;;;5054588;28;20048;-66
2023/07/22 02:04:21;;;;;;;6.50;2.03;;;;;;;;;;5060006;28;20163;-65
2023/07/22 02:06:49;;;;;;;8.60;2.33;;;;;;;;;;5065535;28;20052;-66
2023/07/22 02:09:17;;;;;;;5.72;1.85;;;;;;;;;;5063754;28;20067;-65
2023/07/22 02:11:45;;;;;;;11.35;2.20;;;;;;;;;;5053630;28;21773;-65
2023/07/22 02:14:13;;;;;;;6.97;1.92;;;;;;;;;;5041684;28;20497;-66
2023/07/22 02:16:42;;;;;;;8.57;2.30;;;;;;;;;;5059540;28;20081;-65
2023/07/22 02:19:10;;;;;;;8.43;2.28;;;;;;;;;;5046068;28;20506;-65
2023/07/22 02:21:38;;;;;;;7.93;2.03;;;;;;;;;;5065904;28;20110;-63
2023/07/22 02:24:06;;;;;;;7.60;2.10;;;;;;;;;;5066437;28;20056;-66
2023/07/22 02:26:34;;;;;;;6.05;1.92;;;;;;;;;;5061174;28;20487;-66
2023/07/22 02:29:02;;;;;;;8.63;2.23;;;;;;;;;;5041480;28;20062;-65
2023/07/22 02:31:30;;;;;;;8.68;2.30;;;;;;;;;;5063287;28;20045;-66
2023/07/22 02:33:59;;;;;;;9.27;2.30;;;;;;;;;;5059412;28;20418;-65
2023/07/22 02:36:26;;;;;;;6.28;2.05;;;;;;;;;;5067939;28;20079;-65
2023/07/22 02:38:55;;;;;;;6.78;1.52;;;;;;;;;;5061640;28;20047;-65
2023/07/22 02:41:22;;;;;;;9.23;1.77;;;;;;;;;;5065721;28;20052;-65
2023/07/22 02:43:50;;;;;;;7.15;1.90;;;;;;;;;;5048847;28;20645;-65
2023/07/22 02:46:18;;;;;;;6.28;1.50;;;;;;;;;;5052166;28;20058;-65
2023/07/22 02:48:45;;;;;;;5.35;1.45;;;;;;;;;;5056669;28;20074;-65
2023/07/22 02:51:15;;;;;;;7.57;1.95;;;;;;;;;;5060878;28;20094;-65
2023/07/22 02:53:44;;;;;;;7.17;1.53;;;;;;;;;;5061654;28;20059;-66
2023/07/22 02:56:12;;;;;;;6.72;1.73;;;;;;;;;;5062023;28;20052;-65
2023/07/22 02:58:41;;;;;;;5.45;1.85;;;;;;;;;;5044186;28;20048;-65
2023/07/22 03:01:10;;;;;;;7.63;1.83;;;;;;;;;;5037197;28;20052;-65
2023/07/22 03:03:39;;;;;;;5.63;1.60;;;;;;;;;;5056865;28;20040;-65
2023/07/22 03:06:10;;;;;;;6.03;1.80;;;;;;;;;;5063898;28;20044;-66
2023/07/22 03:08:39;;;;;;;7.35;1.90;;;;;;;;;;5059178;28;20132;-65
2023/07/22 03:11:08;;;;;;;5.82;1.67;;;;;;;;;;5062935;28;20079;-65
2023/07/22 03:13:35;;;;;;;7.70;1.67;;;;;;;;;;5060719;28;20403;-65
2023/07/22 03:16:04;;;;;;;6.72;2.03;;;;;;;;;;5057461;28;20037;-65
2023/07/22 03:18:32;;;;;;;6.23;1.60;;;;;;;;;;5064193;28;20086;-65
2023/07/22 03:21:00;;;;;;;6.13;1.40;;;;;;;;;;5065176;28;20044;-65
2023/07/22 03:23:27;;;;;;;7.78;2.08;;;;;;;;;;5056609;28;20044;-65
2023/07/22 03:25:56;;;;;;;5.47;1.33;;;;;;;;;;5070099;28;20075;-65
2023/07/22 03:28:26;;;;;;;8.07;2.00;;;;;;;;;;5060730;28;20071;-65
2023/07/22 03:30:54;;;;;;;6.33;1.53;;;;;;;;;;5044111;28;20052;-64
2023/07/22 03:33:24;;;;;;;8.57;1.73;;;;;;;;;;5053644;28;20044;-65
2023/07/22 03:35:52;;;;;;;5.50;1.70;;;;;;;;;;5017708;28;20055;-65
2023/07/22 03:38:19;;;;;;;6.00;2.08;;;;;;;;;;5051414;28;20048;-64
2023/07/22 03:40:47;;;;;;;7.63;1.92;;;;;;;;;;5027684;28;20048;-64
2023/07/22 03:43:17;;;;;;;6.13;1.57;;;;;;;;;;5061422;28;20137;-65
2023/07/22 03:45:45;;;;;;;7.38;1.70;;;;;;;;;;5057721;28;20044;-64
2023/07/22 03:48:12;;;;;;;6.70;1.90;;;;;;;;;;5042425;28;20537;-65
2023/07/22 03:50:40;;;;;;;7.63;1.73;;;;;;;;;;5054797;28;20063;-65
2023/07/22 03:53:08;;;;;;;6.75;1.67;;;;;;;;;;5052518;28;20044;-65
2023/07/22 03:55:36;;;;;;;10.47;2.40;;;;;;;;;;5051251;28;20084;-65
2023/07/22 03:58:03;;;;;;;4.80;1.60;;;;;;;;;;5045163;28;20457;-65
2023/07/22 04:00:33;;;;;;;6.45;1.58;;;;;;;;;;5070866;28;20040;-65
2023/07/22 04:03:01;;;;;;;5.88;1.60;;;;;;;;;;5059582;28;20076;-65
2023/07/22 04:05:28;;;;;;;6.95;1.63;;;;;;;;;;5045104;28;20449;-65
2023/07/22 04:07:56;;;;;;;10.17;1.87;;;;;;;;;;5067734;28;20430;-63
2023/07/22 04:10:24;;;;;;;8.43;1.58;;;;;;;;;;5056434;28;20060;-65
2023/07/22 04:12:52;;;;;;;6.00;1.45;;;;;;;;;;5068099;28;20040;-65
2023/07/22 04:15:19;;;;;;;7.57;1.60;;;;;;;;;;5048475;28;20048;-64
2023/07/22 04:17:50;;;;;;;7.47;1.40;;;;;;;;;;5074840;28;20044;-65
2023/07/22 04:20:19;;;;;;;4.97;1.53;;;;;;;;;;5074357;28;20050;-64
2023/07/22 04:22:47;;;;;;;7.97;1.95;;;;;;;;;;5057129;28;20059;-64
2023/07/22 04:25:14;;;;;;;8.02;1.90;;;;;;;;;;5071821;28;20501;-65
2023/07/22 04:27:42;;;;;;;5.95;2.33;;;;;;;;;;5063146;28;20085;-64
2023/07/22 04:30:10;;;;;;;10.00;1.70;;;;;;;;;;5071916;28;20055;-64
2023/07/22 04:32:38;;;;;;;7.93;2.13;;;;;;;;;;5065854;28;20052;-64
2023/07/22 04:35:08;;;;;;;7.38;2.42;;;;;;;;;;5066906;28;20098;-64
2023/07/22 04:37:36;;;;;;;8.77;1.95;;;;;;;;;;5066066;28;20048;-59
2023/07/22 04:40:08;;;;;;;5.55;1.75;;;;;;;;;;5063201;28;20052;-64
2023/07/22 04:42:36;;;;;;;7.28;2.17;;;;;;;;;;5065614;28;20044;-62
2023/07/22 04:45:04;;;;;;;6.07;1.80;;;;;;;;;;5066005;28;20047;-63
2023/07/22 04:47:32;;;;;;;9.45;2.00;;;;;;;;;;5058671;28;20055;-66
2023/07/22 04:49:59;;;;;;;7.15;1.58;;;;;;;;;;5057602;28;20511;-63
2023/07/22 04:52:28;;;;;;;8.30;2.05;;;;;;;;;;5047698;28;20051;-64
2023/07/22 04:54:56;;;;;;;6.70;1.67;;;;;;;;;;5068577;28;20052;-59
2023/07/22 04:57:51;;;;;;;8.50;1.77;;;;;;;;;;5059355;28;20059;-64
2023/07/22 05:00:19;;;;;;;6.28;1.58;;;;;;;;;;5064934;28;20056;-64
2023/07/22 05:02:48;;;;;;;6.78;1.90;;;;;;;;;;5055071;28;20115;-64
2023/07/22 05:05:15;;;;;;;5.85;1.52;;;;;;;;;;5071041;28;20048;-64
2023/07/22 05:07:45;;;;;;;6.72;1.90;;;;;;;;;;5052391;28;20275;-64
2023/07/22 05:10:13;;;;;;;6.80;1.67;;;;;;;;;;5049856;28;20059;-64
2023/07/22 05:12:42;;;;;;;7.32;1.50;;;;;;;;;;5059005;28;20478;-63
2023/07/22 05:15:10;;;;;;;7.05;1.95;;;;;;;;;;5064164;28;20052;-64
2023/07/22 05:17:38;;;;;;;8.20;1.90;;;;;;;;;;5043099;28;20070;-64
2023/07/22 05:20:09;;;;;;;7.30;1.85;;;;;;;;;;5061581;28;20055;-64
2023/07/22 05:22:38;;;;;;;8.63;1.80;;;;;;;;;;5058032;28;20044;-63
2023/07/22 05:25:07;;;;;;;6.43;1.52;;;;;;;;;;5064008;28;20059;-64
2023/07/22 05:27:35;;;;;;;12.68;2.13;;;;;;;;;;5054670;28;20052;-63
2023/07/22 05:30:03;;;;;;;4.90;1.67;;;;;;;;;;5067715;28;20047;-64
2023/07/22 05:32:33;;;;;;;6.75;1.98;;;;;;;;;;5062895;28;20081;-63
2023/07/22 05:35:04;;;;;;;6.43;1.73;;;;;;;;;;5056507;28;20136;-64
2023/07/22 05:37:33;;;;;;;6.28;1.65;;;;;;;;;;5066346;28;20044;-64
2023/07/22 05:40:00;;;;;;;8.68;1.83;;;;;;;;;;5059741;28;20052;-64
2023/07/22 05:42:34;;;;;;;10.15;2.20;;;;;;;;;;5066345;28;20517;-64
2023/07/22 05:45:03;;;;;;;6.30;1.65;;;;;;;;;;5058963;28;20044;-63
2023/07/22 05:47:31;;;;;;;5.93;1.77;;;;;;;;;;5063252;28;20044;-64
2023/07/22 05:49:58;;;;;;;6.75;1.73;;;;;;;;;;5054893;28;20044;-64
2023/07/22 05:52:26;;;;;;;7.68;1.80;;;;;;;;;;5047789;28;20418;-64
2023/07/22 05:54:54;;;;;;;5.53;1.60;;;;;;;;;;5066083;28;20429;-63
2023/07/22 05:57:21;;;;;;;7.57;2.10;;;;;;;;;;5067897;28;20680;-65
2023/07/22 05:59:51;;;;;;;8.30;2.20;;;;;;;;;;5058034;28;20048;-63
2023/07/22 06:02:36;;;;;;;6.85;1.80;;;;;;;;;;5039672;28;20055;-65
2023/07/22 06:05:04;;;;;;;9.25;2.03;;;;;;;;;;5059300;28;20044;-66
2023/07/22 06:07:32;;;;;;;6.13;1.52;;;;;;;;;;5057969;28;20052;-65
2023/07/22 06:09:59;;;;;;;5.13;1.40;;;;;;;;;;5061927;28;20405;-63
2023/07/22 06:12:27;;;;;;;5.70;1.83;;;;;;;;;;5048548;28;20047;-63
2023/07/22 06:14:57;;;;;;;6.38;1.73;;;;;;;;;;5059764;28;20525;-63
2023/07/22 06:17:25;;;;;;;7.00;2.20;;;;;;;;;;5051870;28;20409;-65
2023/07/22 06:19:54;;;;;;;9.02;1.88;;;;;;;;;;5065256;28;20060;-65
2023/07/22 06:22:21;;;;;;;7.30;2.00;;;;;;;;;;5042860;28;20486;-63
2023/07/22 06:24:49;;;;;;;5.93;1.67;;;;;;;;;;5065291;28;20139;-63
2023/07/22 06:27:17;;;;;;;8.20;2.00;;;;;;;;;;5051258;28;20044;-62
2023/07/22 06:29:45;;;;;;;9.00;2.33;;;;;;;;;;5060877;28;20048;-63
2023/07/22 06:32:14;;;;;;;6.43;1.85;;;;;;;;;;5046001;28;20048;-63
2023/07/22 06:34:42;;;;;;;8.75;2.50;;;;;;;;;;5067613;28;20078;-63
2023/07/22 06:37:09;;;;;;;11.00;2.00;;;;;;;;;;5048651;28;20126;-63
2023/07/22 06:39:37;;;;;;;7.72;2.15;;;;;;;;;;5068122;28;20048;-63
2023/07/22 06:42:06;;;;;;;10.05;2.00;;;;;;;;;;5060212;28;20068;-65
2023/07/22 06:44:33;;;;;;;8.30;2.15;;;;;;;;;;5059801;28;20048;-65
2023/07/22 06:47:06;;;;;;;6.82;1.95;;;;;;;;;;5062935;28;20036;-66
2023/07/22 06:49:37;;;;;;;7.83;2.40;;;;;;;;;;5053685;28;20044;-63
2023/07/22 06:52:05;;;;;;;6.95;2.17;;;;;;;;;;5060106;28;20051;-66
2023/07/22 06:54:34;;;;;;;7.38;2.22;;;;;;;;;;5045557;28;20064;-65
2023/07/22 06:57:01;;;;;;;11.15;2.70;;;;;;;;;;5050477;28;20527;-63
2023/07/22 06:59:29;;;;;;;7.15;2.38;;;;;;;;;;5048827;28;20052;-65
2023/07/22 07:01:57;;;;;;;6.60;2.33;;;;;;;;;;5068222;28;20059;-65
2023/07/22 07:04:25;;;;;;;7.82;2.45;;;;;;;;;;5055025;28;20056;-65
2023/07/22 07:06:55;;;;;;;7.45;2.30;;;;;;;;;;5059589;28;20048;-65
2023/07/22 07:09:23;;;;;;;6.38;2.03;;;;;;;;;;5059141;28;20055;-65
2023/07/22 07:11:51;;;;;;;6.32;2.28;;;;;;;;;;5052572;28;20055;-65
2023/07/22 07:14:19;;;;;;;7.20;2.60;;;;;;;;;;5047015;28;20583;-65
2023/07/22 07:16:47;;;;;;;6.57;2.22;;;;;;;;;;5040484;28;20044;-65
2023/07/22 07:19:14;;;;;;;8.30;2.58;;;;;;;;;;5065634;28;20048;-65
2023/07/22 07:21:42;;;;;;;8.65;2.55;;;;;;;;;;5045060;28;20048;-65
2023/07/22 07:24:11;;;;;;;8.68;2.47;;;;;;;;;;5058147;28;20052;-66
2023/07/22 07:26:39;;;;;;;6.93;2.20;;;;;;;;;;5050210;28;20515;-65
2023/07/22 07:29:06;;;;;;;7.30;2.15;;;;;;;;;;5051077;28;20135;-66
2023/07/22 07:31:34;;;;;;;8.52;2.70;;;;;;;;;;5055039;28;21488;-65
2023/07/22 07:34:02;;;;;;;9.38;2.65;;;;;;;;;;5067093;28;20514;-65
2023/07/22 07:36:30;;;;;;;8.95;2.50;;;;;;;;;;5050865;28;20467;-65
2023/07/22 07:38:57;;;;;;;8.83;2.80;;;;;;;;;;5060749;28;20067;-64
2023/07/22 07:41:27;;;;;;;9.07;2.30;;;;;;;;;;5057165;28;20067;-65
2023/07/22 07:43:54;;;;;;;7.60;2.55;;;;;;;;;;5050377;28;20075;-64
2023/07/22 07:46:23;;;;;;;9.82;2.90;;;;;;;;;;5052523;28;20047;-64
2023/07/22 07:48:56;;;;;;;10.07;2.78;;;;;;;;;;5046772;28;20517;-64
2023/07/22 07:51:26;;;;;;;8.33;2.60;;;;;;;;;;5057429;28;20050;-65
2023/07/22 07:53:54;;;;;;;8.40;3.13;;;;;;;;;;5061796;28;20083;-65
2023/07/22 07:56:22;;;;;;;10.30;3.13;;;;;;;;;;5057023;28;20052;-63
2023/07/22 07:58:53;;;;;;;9.63;3.00;;;;;;;;;;5056449;28;20052;-64
2023/07/22 08:01:21;;;;;;;9.18;2.90;;;;;;;;;;5062340;28;20417;-64
2023/07/22 08:03:50;;;;;;;11.03;3.60;;;;;;;;;;5060941;28;20063;-63
2023/07/22 08:06:18;;;;;;;9.40;3.38;;;;;;;;;;5058000;28;20098;-63
2023/07/22 08:08:47;;;;;;;8.00;3.15;;;;;;;;;;5061661;28;20152;-63
2023/07/22 08:11:15;;;;;;;8.05;2.90;;;;;;;;;;5063428;28;20565;-64
2023/07/22 08:13:43;;;;;;;7.95;2.63;;;;;;;;;;5057230;28;20126;-63
2023/07/22 08:16:14;;;;;;;8.13;2.93;;;;;;;;;;5056129;28;20048;-63
2023/07/22 08:18:41;;;;;;;9.85;3.88;;;;;;;;;;5046027;28;20053;-64
2023/07/22 08:21:09;;;;;;;9.63;3.85;;;;;;;;;;5065717;28;20094;-64
2023/07/22 08:23:37;;;;;;;10.38;3.33;;;;;;;;;;5039387;28;20293;-63
2023/07/22 08:26:05;;;;;;;8.45;2.72;;;;;;;;;;5065726;28;20054;-63
2023/07/22 08:28:33;;;;;;;9.47;3.47;;;;;;;;;;5051368;28;20044;-64
2023/07/22 08:31:01;;;;;;;12.57;3.72;;;;;;;;;;5066769;28;20056;-64
2023/07/22 08:33:31;;;;;;;9.63;3.53;;;;;;;;;;5049037;28;20044;-64
2023/07/22 08:36:03;;;;;;;9.18;3.47;;;;;;;;;;5074558;28;20508;-64
2023/07/22 08:38:33;;;;;;;11.40;3.45;;;;;;;;;;5069183;28;20044;-63
2023/07/22 08:41:01;;;;;;;9.50;3.13;;;;;;;;;;5058051;28;20048;-63
2023/07/22 08:43:30;;;;;;;7.90;2.80;;;;;;;;;;5066962;28;20044;-64
2023/07/22 08:46:00;;;;;;;9.23;3.55;;;;;;;;;;5058375;28;20051;-63
2023/07/22 08:48:32;;;;;;;7.35;2.75;;;;;;;;;;5074662;28;20131;-63
2023/07/22 08:51:03;;;;;;;9.88;3.55;;;;;;;;;;5060754;28;20052;-64
2023/07/22 08:53:37;;;;;;;9.20;3.37;;;;;;;;;;5068652;28;20142;-64
2023/07/22 08:56:06;;;;;;;11.50;3.13;;;;;;;;;;5055909;28;20117;-64
2023/07/22 08:58:34;;;;;;;7.97;2.90;;;;;;;;;;5055621;28;20044;-64
2023/07/22 09:01:03;;;;;;;8.68;3.40;;;;;;;;;;5050535;28;20044;-64
2023/07/22 09:03:31;;;;;;;11.65;4.50;;;;;;;;;;5072724;28;20060;-64
2023/07/22 09:05:59;;;;;;;10.17;3.70;;;;;;;;;;5059369;28;20048;-64
2023/07/22 09:08:30;;;;;;;11.80;4.00;;;;;;;;;;5054250;28;20050;-64
2023/07/22 09:10:58;;;;;;;8.70;3.30;;;;;;;;;;5057027;28;20058;-64
2023/07/22 09:13:27;;;;;;;12.43;3.88;;;;;;;;;;5054667;28;20607;-67
2023/07/22 09:15:57;;;;;;;10.68;3.55;;;;;;;;;;5060261;28;20048;-66
2023/07/22 09:18:25;;;;;;;10.77;3.77;;;;;;;;;;5063191;28;20583;-66
2023/07/22 09:20:54;;;;;;;7.43;2.65;;;;;;;;;;5064225;28;20048;-65
2023/07/22 09:23:33;;;;;;;8.90;3.60;;;;;;;;;;5054493;28;20087;-67
2023/07/22 09:26:10;;;;;;;9.88;3.45;;;;;;;;;;5066277;28;20102;-67
2023/07/22 09:28:51;;;;;;;11.77;4.10;;;;;;;;;;5036386;28;20591;-65
2023/07/22 09:31:19;;;;;;;13.60;4.90;;;;;;;;;;5060513;28;20052;-65
2023/07/22 09:33:48;;;;;;;12.35;4.60;;;;;;;;;;5056344;28;20524;-65
2023/07/22 09:36:16;;;;;;;12.37;4.67;;;;;;;;;;4715400;28;10000270;-64
2023/07/22 09:38:46;;;;;;;14.85;4.72;;;;;;;;;;5055864;28;20048;-63
2023/07/22 09:41:19;;;;;;;10.27;4.00;;;;;;;;;;5058643;28;20052;-64
2023/07/22 09:43:47;;;;;;;12.90;4.78;;;;;;;;;;5052971;28;20052;-64
2023/07/22 09:46:15;;;;;;;11.57;4.73;;;;;;;;;;5037447;28;20174;-64
2023/07/22 09:48:53;;;;;;;12.23;4.90;;;;;;;;;;5055706;28;20217;-64
2023/07/22 09:51:21;;;;;;;14.65;5.43;;;;;;;;;;5060006;28;20061;-63
2023/07/22 09:54:01;;;;;;;13.50;3.97;;;;;;;;;;5054412;28;20079;-64
2023/07/22 09:56:29;;;;;;;12.80;5.00;;;;;;;;;;5060349;28;20052;-64
2023/07/22 09:58:59;;;;;;;19.03;5.10;;;;;;;;;;5043199;28;20048;-64
2023/07/22 10:01:27;;;;;;;14.65;4.45;;;;;;;;;;5053502;28;20048;-64
2023/07/22 10:03:56;;;;;;;15.35;4.90;;;;;;;;;;5061228;28;20055;-64
2023/07/22 10:06:25;;;;;;;11.80;3.83;;;;;;;;;;5051855;28;20114;-64
2023/07/22 10:08:56;;;;;;;12.25;4.13;;;;;;;;;;5053475;28;20060;-65
2023/07/22 10:11:26;;;;;;;15.63;5.03;;;;;;;;;;5051226;28;20490;-63
2023/07/22 10:13:54;;;;;;;11.73;4.05;;;;;;;;;;5050117;28;20198;-64
2023/07/22 10:16:24;;;;;;;14.23;4.80;;;;;;;;;;5059582;28;20044;-64
2023/07/22 10:18:54;;;;;;;13.98;4.47;;;;;;;;;;5051014;28;20144;-63
2023/07/22 10:21:24;;;;;;;12.23;4.75;;;;;;;;;;5064733;28;20309;-64
2023/07/22 10:23:54;;;;;;;14.37;5.40;;;;;;;;;;5047996;28;21032;-65
2023/07/22 10:26:22;;;;;;;12.52;4.35;;;;;;;;;;5058908;28;20063;-65
2023/07/22 10:29:11;;;;;;;16.25;4.38;;;;;;;;;;5058365;28;20044;-65
2023/07/22 10:31:39;;;;;;;17.50;5.72;;;;;;;;;;5057190;28;20052;-65
2023/07/22 10:34:06;;;;;;;14.00;5.20;;;;;;;;;;5054261;28;20055;-66
2023/07/22 10:36:34;;;;;;;16.43;5.13;;;;;;;;;;5060547;28;20040;-64
2023/07/22 10:39:04;;;;;;;12.55;4.57;;;;;;;;;;5052367;28;20048;-65
2023/07/22 10:41:33;;;;;;;15.77;5.10;;;;;;;;;;5051400;28;20430;-65
2023/07/22 10:44:02;;;;;;;15.07;5.05;;;;;;;;;;5064228;28;20040;-65
2023/07/22 10:46:34;;;;;;;14.00;5.10;;;;;;;;;;5035215;28;20051;-64
2023/07/22 10:49:12;;;;;;;15.77;4.80;;;;;;;;;;5059832;28;20079;-65
2023/07/22 10:51:40;;;;;;;14.93;4.22;;;;;;;;;;5060643;28;20465;-66
2023/07/22 10:54:13;;;;;;;14.60;5.57;;;;;;;;;;5050769;28;20047;-65
2023/07/22 10:56:42;;;;;;;15.35;5.28;;;;;;;;;;5054374;28;20040;-64
2023/07/22 10:59:11;;;;;;;17.00;5.28;;;;;;;;;;5061053;28;20396;-65
2023/07/22 11:01:39;;;;;;;14.23;4.70;;;;;;;;;;5058157;28;20453;-65
2023/07/22 11:04:13;;;;;;;11.65;4.25;;;;;;;;;;5060439;28;20047;-66
2023/07/22 11:06:52;;;;;;;13.88;4.80;;;;;;;;;;5048347;28;20139;-66
2023/07/22 11:09:41;;;;;;;12.68;4.45;;;;;;;;;;5016657;28;20149;-65
2023/07/22 11:12:11;;;;;;;12.48;4.22;;;;;;;;;;5049648;28;20223;-65
2023/07/22 11:14:40;;;;;;;12.20;4.43;;;;;;;;;;5068604;28;20667;-66
2023/07/22 11:17:09;;;;;;;10.15;3.45;;;;;;;;;;5048495;28;20052;-65
2023/07/22 11:19:36;;;;;;;11.27;4.45;;;;;;;;;;5065463;28;20056;-66
2023/07/22 11:22:05;;;;;;;14.93;4.47;;;;;;;;;;5033132;28;20520;-65
2023/07/22 11:24:33;;;;;;;14.23;5.03;;;;;;;;;;5054381;28;20048;-66
2023/07/22 11:27:03;;;;;;;15.93;4.50;;;;;;;;;;5042645;28;20063;-66
2023/07/22 11:29:31;;;;;;;16.33;4.70;;;;;;;;;;5056225;28;20044;-66
2023/07/22 11:31:59;;;;;;;16.63;5.38;;;;;;;;;;5052204;28;20134;-66
2023/07/22 11:34:30;;;;;;;15.52;5.45;;;;;;;;;;5055175;28;20062;-66
2023/07/22 11:36:58;;;;;;;15.77;5.80;;;;;;;;;;5052456;28;20065;-66
2023/07/22 11:39:31;;;;;;;15.30;5.03;;;;;;;;;;5053857;28;20144;-65
2023/07/22 11:42:02;;;;;;;15.85;5.93;;;;;;;;;;4714574;28;9999776;-66
2023/07/22 11:44:48;;;;;;;15.65;5.88;;;;;;;;;;5043199;28;20076;-66
2023/07/22 11:47:15;;;;;;;15.70;5.85;;;;;;;;;;5059742;28;20051;-65
2023/07/22 11:49:47;;;;;;;14.07;5.50;;;;;;;;;;5053544;28;20048;-66
2023/07/22 11:52:17;;;;;;;15.48;5.30;;;;;;;;;;5050921;28;20044;-65
2023/07/22 11:54:46;;;;;;;17.42;6.20;;;;;;;;;;5063614;28;20058;-64
2023/07/22 11:57:16;;;;;;;15.23;4.82;;;;;;;;;;5057758;28;20048;-65
2023/07/22 11:59:45;;;;;;;13.15;4.65;;;;;;;;;;5061785;28;20597;-66
2023/07/22 12:02:14;;;;;;;16.47;5.43;;;;;;;;;;5063639;28;20117;-64
2023/07/22 12:04:41;;;;;;;16.08;5.80;;;;;;;;;;5046196;28;20044;-65
2023/07/22 12:07:23;;;;;;;16.25;5.38;;;;;;;;;;5067478;28;20048;-66
2023/07/22 12:09:50;;;;;;;15.05;5.22;;;;;;;;;;5063779;28;20441;-66
2023/07/22 12:12:20;;;;;;;15.48;6.10;;;;;;;;;;5046556;28;20040;-65
2023/07/22 12:14:47;;;;;;;16.57;5.57;;;;;;;;;;5042994;28;20076;-65
2023/07/22 12:17:15;;;;;;;16.48;5.57;;;;;;;;;;5048036;28;20724;-65
2023/07/22 12:19:51;;;;;;;14.68;5.07;;;;;;;;;;5047141;28;20044;-65
2023/07/22 12:22:19;;;;;;;13.45;4.68;;;;;;;;;;5056390;28;20044;-64
2023/07/22 12:24:47;;;;;;;14.23;4.45;;;;;;;;;;5052728;28;20088;-64
2023/07/22 12:27:15;;;;;;;13.63;4.57;;;;;;;;;;5048519;28;20122;-64
2023/07/22 12:29:44;;;;;;;14.57;4.40;;;;;;;;;;5030322;28;20044;-66
2023/07/22 12:32:12;;;;;;;13.77;4.53;;;;;;;;;;5055179;28;20109;-64
2023/07/22 12:34:40;;;;;;;14.82;4.07;;;;;;;;;;5048035;28;20067;-65
2023/07/22 12:37:08;;;;;;;11.45;3.88;;;;;;;;;;5056289;28;20040;-64
2023/07/22 12:39:36;;;;;;;10.20;3.23;;;;;;;;;;5054544;28;20044;-64
2023/07/22 12:42:05;;;;;;;9.88;3.20;;;;;;;;;;5054416;28;20051;-65
2023/07/22 12:44:33;;;;;;;11.57;3.13;;;;;;;;;;5059343;28;20059;-65
2023/07/22 12:47:02;;;;;;;11.88;3.13;;;;;;;;;;5053426;28;20055;-65
2023/07/22 12:49:30;;;;;;;8.23;2.67;;;;;;;;;;5054758;28;20052;-65
2023/07/22 12:52:04;;;;;;;9.37;2.90;;;;;;;;;;5056601;28;20114;-65
2023/07/22 12:54:32;;;;;;;7.70;2.30;;;;;;;;;;5060140;28;20414;-65
2023/07/22 12:56:59;;;;;;;8.30;2.50;;;;;;;;;;5056221;28;20058;-65
2023/07/22 12:59:28;;;;;;;8.68;2.20;;;;;;;;;;5025671;28;20447;-65
2023/07/22 13:01:57;;;;;;;8.10;2.13;;;;;;;;;;5058989;28;20048;-66
2023/07/22 13:04:27;;;;;;;7.97;2.63;;;;;;;;;;5051393;28;20056;-66
2023/07/22 13:06:54;;;;;;;7.53;2.05;;;;;;;;;;5065860;28;20082;-66
2023/07/22 13:09:22;;;;;;;7.82;2.20;;;;;;;;;;5057112;28;20047;-65
2023/07/22 13:11:51;;;;;;;7.05;2.70;;;;;;;;;;5065744;28;20078;-66
2023/07/22 13:14:19;;;;;;;7.57;2.38;;;;;;;;;;5059047;28;20041;-66
2023/07/22 13:16:47;;;;;;;7.03;2.03;;;;;;;;;;5077086;28;20056;-66
2023/07/22 13:19:14;;;;;;;7.50;2.40;;;;;;;;;;4340742;28;10000154;-66
2023/07/22 13:21:44;;;;;;;8.13;2.38;;;;;;;;;;5057871;28;20056;-64
2023/07/22 13:24:11;;;;;;;8.57;2.63;;;;;;;;;;5048900;28;20479;-63
2023/07/22 13:26:39;;;;;;;7.95;2.53;;;;;;;;;;5056414;28;20444;-62
2023/07/22 13:29:08;;;;;;;6.93;2.33;;;;;;;;;;5054847;28;20513;-61
2023/07/22 13:31:37;;;;;;;8.57;2.30;;;;;;;;;;5058456;28;20105;-63
2023/07/22 13:34:05;;;;;;;6.40;1.88;;;;;;;;;;5057133;28;20040;-66
2023/07/22 13:36:32;;;;;;;6.30;1.48;;;;;;;;;;5062373;28;20056;-65
2023/07/22 13:39:02;;;;;;;7.38;1.65;;;;;;;;;;5057337;28;20497;-66
2023/07/22 13:41:30;;;;;;;9.48;1.98;;;;;;;;;;5049408;28;20158;-63
2023/07/22 13:43:58;;;;;;;7.40;2.03;;;;;;;;;;5059074;28;20070;-64
2023/07/22 13:46:27;;;;;;;6.53;1.75;;;;;;;;;;5058834;28;20135;-64
2023/07/22 13:48:55;;;;;;;6.00;1.35;;;;;;;;;;5045074;28;20055;-64
2023/07/22 13:51:22;;;;;;;6.90;1.83;;;;;;;;;;5066807;28;20052;-64
2023/07/22 13:53:54;;;;;;;6.28;1.83;;;;;;;;;;5052978;28;20052;-64
2023/07/22 13:56:24;;;;;;;7.23;1.87;;;;;;;;;;5062133;28;20052;-65
2023/07/22 13:58:52;;;;;;;5.68;1.35;;;;;;;;;;5054758;28;20341;-65
2023/07/22 14:01:20;;;;;;;5.80;1.27;;;;;;;;;;5056627;28;20761;-65
2023/07/22 14:03:48;;;;;;;5.60;1.83;;;;;;;;;;5060709;28;20487;-65
2023/07/22 14:06:16;;;;;;;6.85;1.40;;;;;;;;;;5024165;28;20044;-65
2023/07/22 14:08:43;;;;;;;6.47;1.67;;;;;;;;;;5054160;28;20371;-65
2023/07/22 14:11:11;;;;;;;5.93;1.80;;;;;;;;;;5043035;28;20056;-66
2023/07/22 14:13:42;;;;;;;5.45;1.40;;;;;;;;;;5053056;28;20044;-65
2023/07/22 14:16:10;;;;;;;5.85;1.40;;;;;;;;;;5037455;28;20055;-65
2023/07/22 14:18:49;;;;;;;7.70;1.45;;;;;;;;;;5058015;28;20067;-65
2023/07/22 14:21:16;;;;;;;5.20;1.03;;;;;;;;;;5058129;28;20054;-66
2023/07/22 14:23:44;;;;;;;7.72;1.30;;;;;;;;;;5058089;28;20036;-67
2023/07/22 14:26:12;;;;;;;6.25;1.42;;;;;;;;;;5051029;28;20059;-68
2023/07/22 14:28:41;;;;;;;5.68;1.30;;;;;;;;;;5035490;28;20048;-66
2023/07/22 14:31:27;;;;;;;4.15;1.10;;;;;;;;;;5059853;28;20056;-65
2023/07/22 14:33:56;;;;;;;6.20;1.30;;;;;;;;;;5050281;28;20048;-66
2023/07/22 14:36:24;;;;;;;5.10;1.27;;;;;;;;;;5054572;28;20311;-56
2023/07/22 14:38:51;;;;;;;6.20;1.50;;;;;;;;;;5039297;28;20044;-66
2023/07/22 14:41:20;;;;;;;5.90;1.35;;;;;;;;;;5057295;28;20051;-66
2023/07/22 14:43:49;;;;;;;4.47;1.10;;;;;;;;;;5054894;28;20135;-65
2023/07/22 14:46:17;;;;;;;5.63;1.60;;;;;;;;;;5062615;28;20051;-65
2023/07/22 14:48:49;;;;;;;4.83;1.50;;;;;;;;;;5051361;28;20055;-65